sensor_id;sensor_type;location;lat;lon;timestamp;P1;durP1;ratioP1;P2;durP2;ratioP2
28545;SDS011;15749;49.606;8.738;2023-11-21T02:41:44;1.17;;;0.57;;
28545;SDS011;15749;49.606;8.738;2023-11-21T04:52:54;0.87;;;0.40;;
28545;SDS011;15749;49.606;8.738;2023-11-21T04:55:23;0.80;;;0.50;;
28545;SDS011;15749;49.606;8.738;2023-11-21T04:57:55;1.23;;;0.80;;
28545;SDS011;15749;49.606;8.738;2023-11-21T05:01:08;1.90;;;1.00;;
28545;SDS011;15749;49.606;8.738;2023-11-21T05:03:38;0.77;;;0.77;;
28545;SDS011;15749;49.606;8.738;2023-11-21T05:06:09;0.80;;;0.80;;
28545;SDS011;15749;49.606;8.738;2023-11-21T05:08:41;1.00;;;0.80;;
28545;SDS011;15749;49.606;8.738;2023-11-21T05:11:12;0.70;;;0.70;;
28545;SDS011;15749;49.606;8.738;2023-11-21T05:13:51;0.70;;;0.70;;
28545;SDS011;15749;49.606;8.738;2023-11-21T05:16:25;2.87;;;0.90;;
28545;SDS011;15749;49.606;8.738;2023-11-21T05:18:56;1.53;;;0.80;;
28545;SDS011;15749;49.606;8.738;2023-11-21T05:21:28;0.67;;;0.67;;
28545;SDS011;15749;49.606;8.738;2023-11-21T05:24:01;0.80;;;0.80;;
28545;SDS011;15749;49.606;8.738;2023-11-21T05:26:31;1.80;;;0.60;;
28545;SDS011;15749;49.606;8.738;2023-11-21T05:29:01;1.03;;;0.60;;
28545;SDS011;15749;49.606;8.738;2023-11-21T05:31:31;0.70;;;0.70;;
28545;SDS011;15749;49.606;8.738;2023-11-21T05:34:01;1.07;;;0.83;;
28545;SDS011;15749;49.606;8.738;2023-11-21T05:36:30;0.60;;;0.60;;
28545;SDS011;15749;49.606;8.738;2023-11-21T05:42:36;0.67;;;0.67;;
28545;SDS011;15749;49.606;8.738;2023-11-21T05:45:06;0.60;;;0.60;;
28545;SDS011;15749;49.606;8.738;2023-11-21T05:47:40;1.43;;;0.73;;
28545;SDS011;15749;49.606;8.738;2023-11-21T05:57:45;1.67;;;0.70;;
28545;SDS011;15749;49.606;8.738;2023-11-21T06:00:17;1.00;;;0.67;;
28545;SDS011;15749;49.606;8.738;2023-11-21T06:05:50;0.70;;;0.70;;
28545;SDS011;15749;49.606;8.738;2023-11-21T06:18:47;1.40;;;0.80;;
28545;SDS011;15749;49.606;8.738;2023-11-21T06:21:16;1.00;;;0.90;;
28545;SDS011;15749;49.606;8.738;2023-11-21T06:23:45;1.90;;;0.80;;
28545;SDS011;15749;49.606;8.738;2023-11-21T06:26:53;1.00;;;0.90;;
28545;SDS011;15749;49.606;8.738;2023-11-21T06:29:26;4.90;;;0.83;;
28545;SDS011;15749;49.606;8.738;2023-11-21T06:31:58;1.93;;;0.83;;
28545;SDS011;15749;49.606;8.738;2023-11-21T06:34:37;1.57;;;0.83;;
28545;SDS011;15749;49.606;8.738;2023-11-21T06:41:56;1.97;;;1.10;;
28545;SDS011;15749;49.606;8.738;2023-11-21T06:44:28;2.33;;;1.00;;
28545;SDS011;15749;49.606;8.738;2023-11-21T06:46:57;2.20;;;1.10;;
28545;SDS011;15749;49.606;8.738;2023-11-21T06:49:30;1.30;;;1.20;;
28545;SDS011;15749;49.606;8.738;2023-11-21T17:52:18;2.80;;;1.70;;
28545;SDS011;15749;49.606;8.738;2023-11-21T17:54:48;2.43;;;2.03;;
28545;SDS011;15749;49.606;8.738;2023-11-21T17:57:18;2.50;;;2.00;;
28545;SDS011;15749;49.606;8.738;2023-11-21T17:59:47;2.43;;;1.60;;
28545;SDS011;15749;49.606;8.738;2023-11-21T18:02:18;1.37;;;1.27;;
28545;SDS011;15749;49.606;8.738;2023-11-21T18:04:47;2.87;;;1.90;;
28545;SDS011;15749;49.606;8.738;2023-11-21T18:07:18;2.00;;;1.67;;
28545;SDS011;15749;49.606;8.738;2023-11-21T18:09:47;1.47;;;1.33;;
28545;SDS011;15749;49.606;8.738;2023-11-21T18:12:17;1.90;;;1.30;;
28545;SDS011;15749;49.606;8.738;2023-11-21T18:14:48;2.10;;;1.57;;
28545;SDS011;15749;49.606;8.738;2023-11-21T18:17:18;3.60;;;1.63;;
28545;SDS011;15749;49.606;8.738;2023-11-21T18:19:47;2.60;;;1.97;;
28545;SDS011;15749;49.606;8.738;2023-11-21T18:22:23;2.60;;;2.40;;
28545;SDS011;15749;49.606;8.738;2023-11-21T18:24:54;3.03;;;2.30;;
28545;SDS011;15749;49.606;8.738;2023-11-21T18:27:24;2.40;;;2.20;;
28545;SDS011;15749;49.606;8.738;2023-11-21T18:29:55;3.13;;;2.00;;
28545;SDS011;15749;49.606;8.738;2023-11-21T18:32:25;3.43;;;2.60;;
28545;SDS011;15749;49.606;8.738;2023-11-21T18:34:55;2.30;;;2.10;;
28545;SDS011;15749;49.606;8.738;2023-11-21T18:37:25;2.30;;;2.10;;
28545;SDS011;15749;49.606;8.738;2023-11-21T18:39:55;2.90;;;2.13;;
28545;SDS011;15749;49.606;8.738;2023-11-21T18:42:24;3.57;;;2.23;;
28545;SDS011;15749;49.606;8.738;2023-11-21T18:44:55;2.27;;;2.07;;
28545;SDS011;15749;49.606;8.738;2023-11-21T18:47:26;2.30;;;2.10;;
28545;SDS011;15749;49.606;8.738;2023-11-21T18:49:55;2.17;;;2.03;;
28545;SDS011;15749;49.606;8.738;2023-11-21T18:52:26;2.97;;;2.07;;
28545;SDS011;15749;49.606;8.738;2023-11-21T18:54:55;2.53;;;2.33;;
28545;SDS011;15749;49.606;8.738;2023-11-21T18:57:26;1.83;;;1.73;;
28545;SDS011;15749;49.606;8.738;2023-11-21T18:59:55;2.20;;;2.00;;
28545;SDS011;15749;49.606;8.738;2023-11-21T19:02:24;2.50;;;2.30;;
28545;SDS011;15749;49.606;8.738;2023-11-21T19:04:54;2.90;;;2.63;;
28545;SDS011;15749;49.606;8.738;2023-11-21T19:07:23;3.23;;;2.27;;
28545;SDS011;15749;49.606;8.738;2023-11-21T19:09:56;1.83;;;1.67;;
28545;SDS011;15749;49.606;8.738;2023-11-21T19:12:25;2.03;;;1.90;;
28545;SDS011;15749;49.606;8.738;2023-11-21T19:14:54;1.40;;;1.30;;
28545;SDS011;15749;49.606;8.738;2023-11-21T19:17:24;2.17;;;1.20;;
28545;SDS011;15749;49.606;8.738;2023-11-21T19:19:53;1.53;;;1.20;;
28545;SDS011;15749;49.606;8.738;2023-11-21T19:22:24;1.53;;;1.00;;
28545;SDS011;15749;49.606;8.738;2023-11-21T19:24:53;3.63;;;1.07;;
28545;SDS011;15749;49.606;8.738;2023-11-21T19:27:23;1.87;;;1.10;;
28545;SDS011;15749;49.606;8.738;2023-11-21T19:29:52;1.73;;;1.17;;
28545;SDS011;15749;49.606;8.738;2023-11-21T19:32:21;1.00;;;0.90;;
28545;SDS011;15749;49.606;8.738;2023-11-21T19:34:52;1.30;;;1.20;;
28545;SDS011;15749;49.606;8.738;2023-11-21T19:37:21;1.77;;;1.67;;
28545;SDS011;15749;49.606;8.738;2023-11-21T19:39:50;2.27;;;2.07;;
28545;SDS011;15749;49.606;8.738;2023-11-21T19:42:19;2.17;;;1.80;;
28545;SDS011;15749;49.606;8.738;2023-11-21T19:44:52;2.60;;;1.60;;
28545;SDS011;15749;49.606;8.738;2023-11-21T19:47:21;1.80;;;1.70;;
28545;SDS011;15749;49.606;8.738;2023-11-21T19:49:50;1.70;;;1.60;;
28545;SDS011;15749;49.606;8.738;2023-11-21T19:52:20;3.17;;;2.70;;
28545;SDS011;15749;49.606;8.738;2023-11-21T19:54:52;2.30;;;1.80;;
28545;SDS011;15749;49.606;8.738;2023-11-21T19:57:23;1.80;;;1.70;;
28545;SDS011;15749;49.606;8.738;2023-11-21T19:59:53;1.93;;;1.60;;
28545;SDS011;15749;49.606;8.738;2023-11-21T20:02:24;1.30;;;1.20;;
28545;SDS011;15749;49.606;8.738;2023-11-21T20:04:53;1.83;;;1.70;;
28545;SDS011;15749;49.606;8.738;2023-11-21T20:07:23;2.87;;;1.50;;
28545;SDS011;15749;49.606;8.738;2023-11-21T20:09:53;2.33;;;2.10;;
28545;SDS011;15749;49.606;8.738;2023-11-21T20:12:23;2.67;;;2.47;;
28545;SDS011;15749;49.606;8.738;2023-11-21T20:14:54;2.63;;;2.43;;
28545;SDS011;15749;49.606;8.738;2023-11-21T20:17:23;2.63;;;2.23;;
28545;SDS011;15749;49.606;8.738;2023-11-21T20:19:54;2.73;;;2.30;;
28545;SDS011;15749;49.606;8.738;2023-11-21T20:22:24;2.60;;;2.00;;
28545;SDS011;15749;49.606;8.738;2023-11-21T20:24:53;1.73;;;1.63;;
28545;SDS011;15749;49.606;8.738;2023-11-21T20:27:24;1.60;;;1.50;;
28545;SDS011;15749;49.606;8.738;2023-11-21T20:29:55;1.70;;;1.60;;
28545;SDS011;15749;49.606;8.738;2023-11-21T20:32:27;1.50;;;1.40;;
28545;SDS011;15749;49.606;8.738;2023-11-21T20:34:56;1.43;;;1.33;;
28545;SDS011;15749;49.606;8.738;2023-11-21T20:37:27;2.40;;;1.43;;
28545;SDS011;15749;49.606;8.738;2023-11-21T20:40:00;1.57;;;1.47;;
28545;SDS011;15749;49.606;8.738;2023-11-21T20:42:34;2.83;;;1.50;;
28545;SDS011;15749;49.606;8.738;2023-11-21T20:45:10;7.83;;;2.27;;
28545;SDS011;15749;49.606;8.738;2023-11-21T20:47:40;1.60;;;1.40;;
28545;SDS011;15749;49.606;8.738;2023-11-21T20:50:10;4.13;;;2.00;;
28545;SDS011;15749;49.606;8.738;2023-11-21T20:52:39;3.43;;;1.90;;
28545;SDS011;15749;49.606;8.738;2023-11-21T20:55:09;3.07;;;2.13;;
28545;SDS011;15749;49.606;8.738;2023-11-21T20:57:39;2.13;;;1.50;;
28545;SDS011;15749;49.606;8.738;2023-11-21T21:00:11;4.77;;;1.40;;
28545;SDS011;15749;49.606;8.738;2023-11-21T21:02:43;2.77;;;1.10;;
28545;SDS011;15749;49.606;8.738;2023-11-21T21:05:14;3.20;;;1.10;;
28545;SDS011;15749;49.606;8.738;2023-11-21T21:07:44;2.83;;;1.10;;
28545;SDS011;15749;49.606;8.738;2023-11-21T21:10:13;6.40;;;1.30;;
28545;SDS011;15749;49.606;8.738;2023-11-21T21:12:43;0.90;;;0.90;;
28545;SDS011;15749;49.606;8.738;2023-11-21T21:15:13;4.10;;;1.10;;
28545;SDS011;15749;49.606;8.738;2023-11-21T21:17:42;1.20;;;1.10;;
28545;SDS011;15749;49.606;8.738;2023-11-21T21:20:13;2.27;;;1.50;;
28545;SDS011;15749;49.606;8.738;2023-11-21T21:22:43;3.10;;;1.70;;
28545;SDS011;15749;49.606;8.738;2023-11-21T21:25:12;5.23;;;1.67;;
28545;SDS011;15749;49.606;8.738;2023-11-21T21:27:41;5.73;;;2.00;;
28545;SDS011;15749;49.606;8.738;2023-11-21T21:30:11;2.07;;;1.50;;
28545;SDS011;15749;49.606;8.738;2023-11-21T21:32:42;6.43;;;1.70;;
28545;SDS011;15749;49.606;8.738;2023-11-21T21:35:11;2.90;;;1.70;;
28545;SDS011;15749;49.606;8.738;2023-11-21T21:37:40;2.07;;;1.87;;
28545;SDS011;15749;49.606;8.738;2023-11-21T21:40:10;3.53;;;1.90;;
28545;SDS011;15749;49.606;8.738;2023-11-21T21:42:40;2.03;;;1.83;;
28545;SDS011;15749;49.606;8.738;2023-11-21T21:45:09;1.93;;;1.47;;
28545;SDS011;15749;49.606;8.738;2023-11-21T21:47:39;4.00;;;1.80;;
28545;SDS011;15749;49.606;8.738;2023-11-21T21:50:10;1.70;;;1.60;;
28545;SDS011;15749;49.606;8.738;2023-11-21T21:52:39;2.37;;;1.10;;
28545;SDS011;15749;49.606;8.738;2023-11-21T21:55:09;3.70;;;1.10;;
28545;SDS011;15749;49.606;8.738;2023-11-21T21:57:40;3.20;;;1.23;;
28545;SDS011;15749;49.606;8.738;2023-11-21T22:00:11;6.77;;;1.60;;
28545;SDS011;15749;49.606;8.738;2023-11-21T22:02:41;1.37;;;1.27;;
28545;SDS011;15749;49.606;8.738;2023-11-21T22:05:12;1.20;;;1.10;;
28545;SDS011;15749;49.606;8.738;2023-11-21T22:07:41;2.23;;;1.37;;
28545;SDS011;15749;49.606;8.738;2023-11-21T22:10:10;6.60;;;1.30;;
28545;SDS011;15749;49.606;8.738;2023-11-21T22:12:40;0.90;;;0.90;;
28545;SDS011;15749;49.606;8.738;2023-11-21T22:15:09;2.10;;;1.10;;
28545;SDS011;15749;49.606;8.738;2023-11-21T22:17:42;5.90;;;1.80;;
28545;SDS011;15749;49.606;8.738;2023-11-21T22:20:12;1.27;;;1.17;;
28545;SDS011;15749;49.606;8.738;2023-11-21T22:22:41;2.07;;;1.40;;
28545;SDS011;15749;49.606;8.738;2023-11-21T22:25:11;1.43;;;1.33;;
28545;SDS011;15749;49.606;8.738;2023-11-21T22:27:40;4.17;;;1.00;;
28545;SDS011;15749;49.606;8.738;2023-11-21T22:30:10;6.40;;;2.20;;
28545;SDS011;15749;49.606;8.738;2023-11-21T22:32:39;1.17;;;1.07;;
28545;SDS011;15749;49.606;8.738;2023-11-21T22:35:08;4.23;;;1.30;;
28545;SDS011;15749;49.606;8.738;2023-11-21T22:37:39;2.50;;;1.00;;
28545;SDS011;15749;49.606;8.738;2023-11-21T22:40:08;1.80;;;1.30;;
28545;SDS011;15749;49.606;8.738;2023-11-21T22:42:38;1.00;;;1.00;;
28545;SDS011;15749;49.606;8.738;2023-11-21T22:45:07;5.37;;;1.63;;
28545;SDS011;15749;49.606;8.738;2023-11-21T22:47:37;1.20;;;1.10;;
28545;SDS011;15749;49.606;8.738;2023-11-21T22:50:07;5.93;;;1.50;;
28545;SDS011;15749;49.606;8.738;2023-11-21T22:52:39;7.37;;;1.80;;
28545;SDS011;15749;49.606;8.738;2023-11-21T22:55:08;1.40;;;1.30;;
28545;SDS011;15749;49.606;8.738;2023-11-21T22:57:38;1.97;;;1.30;;
28545;SDS011;15749;49.606;8.738;2023-11-21T23:00:08;5.47;;;1.67;;
28545;SDS011;15749;49.606;8.738;2023-11-21T23:02:44;5.03;;;2.13;;
28545;SDS011;15749;49.606;8.738;2023-11-21T23:05:13;1.23;;;1.13;;
28545;SDS011;15749;49.606;8.738;2023-11-21T23:07:44;1.47;;;1.37;;
28545;SDS011;15749;49.606;8.738;2023-11-21T23:10:14;1.20;;;1.10;;
28545;SDS011;15749;49.606;8.738;2023-11-21T23:12:45;2.47;;;1.30;;
28545;SDS011;15749;49.606;8.738;2023-11-21T23:15:14;2.30;;;1.60;;
28545;SDS011;15749;49.606;8.738;2023-11-21T23:17:43;11.87;;;2.27;;
28545;SDS011;15749;49.606;8.738;2023-11-21T23:20:13;2.20;;;1.40;;
28545;SDS011;15749;49.606;8.738;2023-11-21T23:22:49;6.73;;;1.77;;
28545;SDS011;15749;49.606;8.738;2023-11-21T23:25:18;1.83;;;1.60;;
28545;SDS011;15749;49.606;8.738;2023-11-21T23:27:47;2.10;;;1.90;;
28545;SDS011;15749;49.606;8.738;2023-11-21T23:30:17;6.20;;;1.80;;
28545;SDS011;15749;49.606;8.738;2023-11-21T23:32:46;11.80;;;2.17;;
28545;SDS011;15749;49.606;8.738;2023-11-21T23:35:15;3.77;;;1.90;;
28545;SDS011;15749;49.606;8.738;2023-11-21T23:37:45;3.53;;;1.90;;
28545;SDS011;15749;49.606;8.738;2023-11-21T23:40:16;1.70;;;1.60;;
28545;SDS011;15749;49.606;8.738;2023-11-21T23:42:45;3.43;;;1.90;;
28545;SDS011;15749;49.606;8.738;2023-11-21T23:45:14;1.97;;;1.63;;
28545;SDS011;15749;49.606;8.738;2023-11-21T23:47:43;6.87;;;1.70;;
28545;SDS011;15749;49.606;8.738;2023-11-21T23:50:13;1.60;;;1.50;;
28545;SDS011;15749;49.606;8.738;2023-11-21T23:52:42;3.07;;;1.80;;
28545;SDS011;15749;49.606;8.738;2023-11-21T23:55:11;1.70;;;1.60;;
28545;SDS011;15749;49.606;8.738;2023-11-21T23:57:42;1.50;;;1.40;;
